Time;durP1;ratioP1;P1;durP2;ratioP2;P2;SDS_P1;SDS_P2;PMS_P1;PMS_P2;Temp;Humidity;BMP_temperature;BMP_pressure;BME280_temperature;BME280_humidity;BME280_pressure;Samples;Min_cycle;Max_cycle;Signal;HPM_P1;HPM_P2
2021/12/29 00:02:08;;;;;;;20.52;10.88;;;;;;;7.97;100.00;100077.41;5013014;28;20025;-85
2021/12/29 00:04:33;;;;;;;15.40;9.50;;;;;;;7.96;100.00;100070.59;5013132;28;20033;-83
2021/12/29 00:06:59;;;;;;;16.27;10.60;;;;;;;7.97;100.00;100080.81;5013291;28;20033;-84
2021/12/29 00:09:25;;;;;;;16.17;10.40;;;;;;;7.96;100.00;100074.03;5012991;28;20022;-80
2021/12/29 00:11:51;;;;;;;17.08;10.35;;;;;;;7.97;100.00;100090.28;5012960;28;20026;-84
2021/12/29 00:14:17;;;;;;;17.95;11.05;;;;;;;7.94;100.00;100103.31;5012892;28;20544;-87
2021/12/29 00:16:43;;;;;;;18.20;10.80;;;;;;;7.78;100.00;100088.03;5011896;28;20168;-87
2021/12/29 00:19:08;;;;;;;18.70;11.40;;;;;;;7.92;100.00;100123.16;5013207;28;20113;-81
2021/12/29 00:21:36;;;;;;;18.10;11.02;;;;;;;7.94;100.00;100129.84;5012946;28;20097;-81
2021/12/29 00:24:04;;;;;;;18.77;10.60;;;;;;;7.86;100.00;100120.94;5013142;28;20022;-83
2021/12/29 00:26:31;;;;;;;20.52;10.32;;;;;;;7.71;100.00;100102.19;5013127;28;20034;-84
2021/12/29 00:28:59;;;;;;;19.25;10.70;;;;;;;7.91;100.00;100137.75;5012673;28;20029;-83
2021/12/29 00:31:29;;;;;;;19.52;10.52;;;;;;;7.98;100.00;100145.91;5012961;28;20113;-84
2021/12/29 00:33:54;;;;;;;19.02;9.52;;;;;;;7.85;100.00;100124.44;5012732;28;20018;-83
2021/12/29 00:36:20;;;;;;;17.52;10.27;;;;;;;7.85;100.00;100127.00;5012816;28;20080;-84
2021/12/29 00:38:45;;;;;;;14.57;9.05;;;;;;;7.99;100.00;100156.09;5012724;28;20080;-85
2021/12/29 00:41:12;;;;;;;13.10;8.68;;;;;;;7.99;100.00;100166.38;5012832;28;20042;-84
2021/12/29 00:43:37;;;;;;;13.60;8.80;;;;;;;7.99;100.00;100174.09;5012170;28;20042;-83
2021/12/29 00:46:03;;;;;;;13.43;8.80;;;;;;;7.96;100.00;100178.59;5012938;28;20092;-83
2021/12/29 00:48:35;;;;;;;16.45;8.68;;;;;;;7.92;100.00;100175.38;5012766;28;20036;-84
2021/12/29 00:51:01;;;;;;;15.48;9.43;;;;;;;7.99;100.00;100179.22;5012747;28;20469;-85
2021/12/29 00:53:26;;;;;;;14.05;9.90;;;;;;;8.01;100.00;100184.28;5012717;28;20050;-81
2021/12/29 00:55:51;;;;;;;12.75;9.73;;;;;;;7.80;100.00;100152.19;5012548;28;20030;-86
2021/12/29 00:58:17;;;;;;;14.95;9.98;;;;;;;8.04;100.00;100196.94;5012626;28;20030;-83
2021/12/29 01:00:42;;;;;;;13.80;9.40;;;;;;;8.04;100.00;100202.91;5013266;28;20109;-84
2021/12/29 01:03:08;;;;;;;12.85;9.10;;;;;;;8.04;100.00;100202.91;5016719;28;20112;-84
2021/12/29 01:05:34;;;;;;;14.77;9.38;;;;;;;8.03;100.00;100218.44;5016565;28;20033;-83
2021/12/29 01:08:00;;;;;;;14.90;9.13;;;;;;;7.99;100.00;100215.22;5015266;28;20470;-81
2021/12/29 01:10:26;;;;;;;14.52;9.13;;;;;;;8.03;100.00;100221.00;5016463;28;20026;-85
2021/12/29 01:12:58;;;;;;;12.45;8.95;;;;;;;8.02;100.00;100227.06;5015017;28;20037;-84
2021/12/29 01:15:31;;;;;;;12.02;8.35;;;;;;;7.97;100.00;100222.22;5016648;28;20033;-83
2021/12/29 01:17:57;;;;;;;14.52;9.30;;;;;;;8.02;100.00;100237.34;5016680;28;20026;-85
2021/12/29 01:20:24;;;;;;;13.77;9.13;;;;;;;8.04;100.00;100249.19;5016334;28;20465;-83
2021/12/29 01:22:50;;;;;;;13.55;10.18;;;;;;;7.74;100.00;100204.78;5016240;28;20026;-84
2021/12/29 01:25:16;;;;;;;15.23;10.02;;;;;;;8.00;100.00;100252.88;5016205;28;20061;-85
2021/12/29 01:27:41;;;;;;;13.00;9.18;;;;;;;7.94;100.00;100254.97;5016248;28;20497;-84
2021/12/29 01:30:10;;;;;;;13.82;9.18;;;;;;;7.99;100.00;100261.50;5016255;28;20025;-83
2021/12/29 01:32:37;;;;;;;15.05;9.07;;;;;;;8.02;100.00;100274.16;5016344;28;20087;-81
2021/12/29 01:35:03;;;;;;;16.08;9.30;;;;;;;7.97;100.00;100276.22;5016120;28;20049;-84
2021/12/29 01:37:29;;;;;;;14.60;9.32;;;;;;;7.96;100.00;100278.84;5016497;28;20124;-78
2021/12/29 01:39:54;;;;;;;15.05;9.45;;;;;;;8.03;100.00;100300.72;5016030;28;20053;-85
2021/12/29 01:42:19;;;;;;;17.80;9.52;;;;;;;8.03;100.00;100295.56;5016130;28;20040;-85
2021/12/29 01:44:45;;;;;;;14.65;8.98;;;;;;;7.90;100.00;100284.38;5015657;28;20136;-86
2021/12/29 01:47:10;;;;;;;14.93;9.70;;;;;;;8.01;100.00;100299.97;4998534;28;20026;-85
2021/12/29 01:49:37;;;;;;;14.05;8.68;;;;;;;7.97;100.00;100301.09;5015877;28;20029;-83
2021/12/29 01:52:10;;;;;;;13.27;8.80;;;;;;;8.01;100.00;100305.94;5015814;28;20049;-84
2021/12/29 01:54:36;;;;;;;12.95;8.45;;;;;;;8.01;100.00;100311.09;5015957;28;20037;-79
2021/12/29 01:57:06;;;;;;;15.50;9.57;;;;;;;7.98;100.00;100319.00;5015790;28;20030;-86
2021/12/29 01:59:32;;;;;;;14.32;8.85;;;;;;;7.99;100.00;100312.09;5015599;28;20030;-76
2021/12/29 02:01:58;;;;;;;14.02;8.65;;;;;;;7.99;100.00;100314.69;5015648;28;20030;-84
2021/12/29 02:04:23;;;;;;;13.40;8.98;;;;;;;7.86;100.00;100296.56;5015529;28;20025;-84
2021/12/29 02:06:49;;;;;;;14.25;8.85;;;;;;;8.02;100.00;100329.91;5015596;28;20021;-83
2021/12/29 02:09:15;;;;;;;14.27;8.63;;;;;;;7.96;100.00;100315.69;5015487;28;20026;-84
2021/12/29 02:11:42;;;;;;;14.20;9.18;;;;;;;8.04;100.00;100335.78;4997471;28;20041;-85
2021/12/29 02:14:09;;;;;;;13.35;9.48;;;;;;;8.04;100.00;100338.34;5015453;28;20029;-85
2021/12/29 02:16:35;;;;;;;16.30;10.25;;;;;;;8.03;100.00;100349.56;5015477;28;20041;-87
2021/12/29 02:19:03;;;;;;;14.00;9.52;;;;;;;8.04;100.00;100351.22;5015126;28;20047;-85
2021/12/29 02:21:32;;;;;;;14.25;9.00;;;;;;;8.04;100.00;100356.34;5015377;28;20026;-85
2021/12/29 02:26:26;;;;;;;15.15;9.32;;;;;;;7.99;100.00;100353.25;5015341;28;20088;-84
2021/12/29 02:28:52;;;;;;;14.73;10.38;;;;;;;7.91;100.00;100332.31;5014957;28;20018;-85
2021/12/29 02:31:17;;;;;;;15.15;9.90;;;;;;;8.03;100.00;100358.09;5015320;28;20029;-84
2021/12/29 02:33:42;;;;;;;15.25;11.50;;;;;;;7.98;100.00;100355.00;5014910;28;20041;-85
2021/12/29 02:36:08;;;;;;;15.55;10.73;;;;;;;8.00;100.00;100366.00;5015167;28;20126;-85
2021/12/29 02:38:36;;;;;;;16.15;11.40;;;;;;;7.92;100.00;100357.09;5014996;28;20018;-83
2021/12/29 02:41:06;;;;;;;19.80;11.45;;;;;;;7.97;100.00;100371.34;5015032;28;20022;-85
2021/12/29 02:43:36;;;;;;;18.00;11.90;;;;;;;7.92;100.00;100364.81;5014604;28;21487;-86
2021/12/29 02:46:06;;;;;;;19.97;12.83;;;;;;;7.94;100.00;100376.66;5014749;28;20033;-87
2021/12/29 02:48:37;;;;;;;18.10;11.95;;;;;;;7.89;100.00;100367.56;5013270;28;20030;-79
2021/12/29 02:51:04;;;;;;;19.08;11.73;;;;;;;7.81;100.00;100354.34;5014988;28;20022;-86
2021/12/29 02:53:30;;;;;;;18.67;11.68;;;;;;;7.92;100.00;100375.09;4997062;28;20029;-86
2021/12/29 02:55:56;;;;;;;18.42;11.55;;;;;;;7.78;100.00;100359.66;5014649;28;20025;-87
2021/12/29 02:58:23;;;;;;;16.42;11.27;;;;;;;7.80;100.00;100368.09;5014634;28;20029;-83
2021/12/29 03:00:50;;;;;;;20.13;12.40;;;;;;;7.78;100.00;100357.09;5014443;28;20470;-85
2021/12/29 03:03:21;;;;;;;18.17;11.80;;;;;;;7.88;100.00;100371.88;5014179;28;20073;-83
2021/12/29 03:05:47;;;;;;;21.85;12.50;;;;;;;7.83;100.00;100386.75;5014819;28;20090;-86
2021/12/29 03:08:14;;;;;;;20.15;12.38;;;;;;;7.84;100.00;100398.66;5014546;28;20033;-85
2021/12/29 03:10:40;;;;;;;22.48;13.60;;;;;;;7.88;100.00;100413.00;5014497;28;20030;-80
2021/12/29 03:13:05;;;;;;;21.52;13.43;;;;;;;7.90;100.00;100418.06;5014475;28;20080;-85
2021/12/29 03:15:31;;;;;;;20.27;13.15;;;;;;;7.88;100.00;100407.88;5014151;28;20022;-85
2021/12/29 03:17:56;;;;;;;24.20;13.90;;;;;;;7.81;100.00;100398.03;5012767;28;20030;-85
2021/12/29 03:20:21;;;;;;;20.08;13.80;;;;;;;7.89;100.00;100424.94;5014164;28;20381;-86
2021/12/29 03:22:47;;;;;;;20.20;14.50;;;;;;;7.90;100.00;100424.03;5012120;28;20034;-85
2021/12/29 03:25:12;;;;;;;22.63;14.18;;;;;;;7.88;100.00;100428.44;5013554;28;20112;-85
2021/12/29 03:27:37;;;;;;;22.58;14.55;;;;;;;7.90;100.00;100436.88;5014212;28;20113;-85
2021/12/29 03:30:04;;;;;;;25.33;15.48;;;;;;;7.90;100.00;100441.19;5013865;28;20072;-85
2021/12/29 03:32:43;;;;;;;19.85;14.18;;;;;;;7.90;100.00;100438.63;5013779;28;20036;-86
2021/12/29 03:35:09;;;;;;;20.85;14.40;;;;;;;7.64;100.00;100406.72;5014144;28;20021;-85
2021/12/29 03:37:35;;;;;;;23.00;15.20;;;;;;;7.79;100.00;100433.28;5014076;28;20033;-86
2021/12/29 03:40:00;;;;;;;22.13;14.77;;;;;;;7.84;100.00;100460.38;5013897;28;20030;-86
2021/12/29 03:42:25;;;;;;;21.63;13.90;;;;;;;7.85;100.00;100454.31;5013628;28;20034;-84
2021/12/29 03:44:51;;;;;;;22.05;14.77;;;;;;;7.80;100.00;100447.78;5013319;28;20492;-74
2021/12/29 03:47:16;;;;;;;22.35;14.25;;;;;;;7.84;100.00;100459.53;5013525;28;20127;-84
2021/12/29 03:49:42;;;;;;;24.05;15.57;;;;;;;7.82;100.00;100461.38;5014104;28;20079;-84
2021/12/29 03:52:07;;;;;;;22.98;15.38;;;;;;;7.79;100.00;100464.13;5013849;28;20030;-85
2021/12/29 03:54:32;;;;;;;22.08;14.55;;;;;;;7.72;100.00;100461.06;5013625;28;20492;-85
2021/12/29 03:57:02;;;;;;;25.80;15.27;;;;;;;7.81;100.00;100475.16;5013600;28;20018;-84
2021/12/29 03:59:28;;;;;;;24.40;15.15;;;;;;;7.83;100.00;100475.88;5013576;28;20111;-85
2021/12/29 04:01:54;;;;;;;25.70;16.08;;;;;;;7.78;100.00;100477.91;5013389;28;20034;-85
2021/12/29 04:04:20;;;;;;;27.63;16.15;;;;;;;7.52;100.00;100433.09;5013366;28;20030;-84
2021/12/29 04:06:46;;;;;;;26.30;15.50;;;;;;;7.77;100.00;100474.50;5013584;28;20026;-85
2021/12/29 04:09:12;;;;;;;24.92;14.38;;;;;;;7.80;100.00;100484.59;5013509;28;20029;-85
2021/12/29 04:11:37;;;;;;;23.85;15.63;;;;;;;7.75;100.00;100481.44;5013487;28;20021;-81
2021/12/29 04:14:02;;;;;;;22.77;14.57;;;;;;;7.80;100.00;100488.91;5013202;28;20088;-85
2021/12/29 04:16:28;;;;;;;24.58;14.82;;;;;;;7.82;100.00;100490.47;5013136;28;20025;-84
2021/12/29 04:21:37;;;;;;;25.17;15.23;;;;;;;7.70;100.00;100478.34;5013641;28;20041;-85
2021/12/29 04:24:05;;;;;;;25.65;13.85;;;;;;;7.79;100.00;100494.97;5012980;28;20042;-85
2021/12/29 04:26:33;;;;;;;26.50;14.00;;;;;;;7.64;100.00;100481.22;5013021;28;20030;-85
2021/12/29 04:28:58;;;;;;;24.77;13.95;;;;;;;7.76;100.00;100496.78;5013070;28;20106;-84
2021/12/29 04:31:23;;;;;;;25.95;14.38;;;;;;;7.51;100.00;100457.16;5012748;28;20113;-85
2021/12/29 04:33:49;;;;;;;27.45;14.82;;;;;;;7.61;100.00;100478.84;5013123;28;20029;-85
2021/12/29 04:36:15;;;;;;;25.73;15.15;;;;;;;7.55;100.00;100481.75;5012223;28;20030;-85
2021/12/29 04:38:41;;;;;;;25.98;15.05;;;;;;;7.59;100.00;100501.25;5013105;28;20436;-83
2021/12/29 04:41:06;;;;;;;30.17;15.63;;;;;;;7.70;100.00;100522.84;5012922;28;20022;-85
2021/12/29 04:43:32;;;;;;;25.92;15.07;;;;;;;7.69;100.00;100526.34;5012605;28;20579;-85
2021/12/29 04:45:58;;;;;;;27.95;14.48;;;;;;;7.70;100.00;100529.72;5012735;28;20022;-84
2021/12/29 04:48:24;;;;;;;28.50;14.40;;;;;;;7.56;100.00;100511.66;5012698;28;20121;-84
2021/12/29 04:50:53;;;;;;;23.88;13.98;;;;;;;7.64;100.00;100527.50;5012963;28;20026;-84
2021/12/29 04:53:21;;;;;;;28.63;14.57;;;;;;;7.74;100.00;100544.88;5012849;28;20026;-84
2021/12/29 04:55:49;;;;;;;28.80;14.60;;;;;;;7.74;100.00;100546.63;5012809;28;20022;-85
2021/12/29 04:58:15;;;;;;;26.13;15.32;;;;;;;7.73;100.00;100550.94;5012725;28;20028;-85
2021/12/29 05:00:41;;;;;;;23.02;14.82;;;;;;;7.74;100.00;100551.75;5012683;28;20049;-83
2021/12/29 05:03:07;;;;;;;23.45;15.05;;;;;;;7.57;100.00;100537.31;5012692;28;20073;-85
2021/12/29 05:10:42;;;;;;;26.25;15.13;;;;;;;7.63;100.00;100549.78;5012905;28;20080;-84
2021/12/29 05:13:08;;;;;;;26.23;15.07;;;;;;;7.62;100.00;100537.84;5012764;28;20429;-85
2021/12/29 05:15:33;;;;;;;27.55;15.48;;;;;;;7.76;100.00;100562.78;5012556;28;20026;-84
2021/12/29 05:17:59;;;;;;;24.33;15.20;;;;;;;7.68;100.00;100544.41;5012398;28;20105;-84
2021/12/29 05:20:27;;;;;;;26.50;14.85;;;;;;;7.74;100.00;100559.47;5012643;28;20492;-85
2021/12/29 05:22:52;;;;;;;26.20;14.85;;;;;;;7.75;100.00;100553.41;5012325;28;20026;-86
2021/12/29 05:25:17;;;;;;;37.13;14.70;;;;;;;7.74;100.00;100559.47;5012991;28;20034;-79
2021/12/29 05:27:43;;;;;;;26.02;14.57;;;;;;;7.74;100.00;100557.72;5012580;28;20022;-86
2021/12/29 05:30:09;;;;;;;22.05;14.10;;;;;;;7.73;100.00;100563.78;5012454;28;20076;-86
2021/12/29 05:32:34;;;;;;;22.17;14.82;;;;;;;7.74;100.00;100564.63;5012260;28;20065;-83
2021/12/29 05:34:59;;;;;;;24.23;14.73;;;;;;;7.74;100.00;100567.19;5012428;28;20105;-85
2021/12/29 05:37:24;;;;;;;26.10;15.77;;;;;;;7.56;100.00;100540.75;5012342;28;20113;-84
2021/12/29 05:39:50;;;;;;;22.40;14.75;;;;;;;7.73;100.00;100574.06;5012586;28;20416;-85
2021/12/29 05:42:16;;;;;;;26.67;14.75;;;;;;;7.63;100.00;100557.50;5012353;28;20485;-85
2021/12/29 05:44:41;;;;;;;22.50;14.00;;;;;;;7.70;100.00;100566.53;5012349;28;20038;-85
2021/12/29 05:47:06;;;;;;;22.83;14.35;;;;;;;7.74;100.00;100573.16;5013396;28;20084;-86
2021/12/29 05:49:32;;;;;;;26.00;13.70;;;;;;;7.57;100.00;100545.00;5015912;28;20037;-85
2021/12/29 05:51:57;;;;;;;25.23;14.98;;;;;;;7.76;100.00;100573.06;5015822;28;20036;-84
2021/12/29 05:54:27;;;;;;;24.77;15.70;;;;;;;7.69;100.00;100562.31;5015921;28;20045;-85
2021/12/29 05:56:53;;;;;;;20.65;13.98;;;;;;;7.76;100.00;100579.03;5015909;28;20022;-84
2021/12/29 05:59:18;;;;;;;22.48;14.00;;;;;;;7.76;100.00;100579.03;5015715;28;20037;-79
2021/12/29 06:01:44;;;;;;;22.38;15.25;;;;;;;7.64;100.00;100559.16;5015543;28;20033;-85
2021/12/29 06:04:10;;;;;;;21.17;13.50;;;;;;;7.46;100.00;100527.59;5014448;28;20033;-84
2021/12/29 06:06:35;;;;;;;22.38;14.65;;;;;;;7.74;100.00;100580.88;5015416;28;20478;-85
2021/12/29 06:09:00;;;;;;;21.17;13.45;;;;;;;7.74;100.00;100582.59;5015760;28;20539;-85
2021/12/29 06:11:26;;;;;;;22.90;14.23;;;;;;;7.61;100.00;100567.03;5015712;28;20038;-85
2021/12/29 06:13:51;;;;;;;23.42;14.45;;;;;;;7.55;100.00;100561.41;5015565;28;20033;-81
2021/12/29 06:16:16;;;;;;;24.17;13.60;;;;;;;7.72;100.00;100589.59;5015256;28;20482;-84
2021/12/29 06:18:42;;;;;;;23.83;14.10;;;;;;;7.63;100.00;100590.91;5014982;28;20129;-77
2021/12/29 06:21:07;;;;;;;23.90;14.10;;;;;;;7.68;100.00;100600.97;5015613;28;20017;-85
2021/12/29 06:23:32;;;;;;;26.02;13.88;;;;;;;7.66;100.00;100607.91;5015156;28;20045;-85
2021/12/29 06:25:58;;;;;;;24.38;13.40;;;;;;;7.60;100.00;100611.66;5015400;28;20033;-83
2021/12/29 06:28:23;;;;;;;25.13;14.50;;;;;;;7.62;100.00;100622.66;5015277;28;20477;-84
2021/12/29 06:30:49;;;;;;;21.58;14.27;;;;;;;7.64;100.00;100628.53;5015160;28;20028;-85
2021/12/29 06:33:14;;;;;;;24.48;14.48;;;;;;;7.58;100.00;100615.22;5014689;28;20080;-83
2021/12/29 06:35:39;;;;;;;22.73;13.80;;;;;;;7.64;100.00;100633.69;5015120;28;20061;-86
2021/12/29 06:38:05;;;;;;;26.92;14.60;;;;;;;7.64;100.00;100636.25;5014991;28;20108;-85
2021/12/29 06:40:30;;;;;;;25.85;14.23;;;;;;;7.48;100.00;100610.56;5014925;28;20382;-84
2021/12/29 06:42:56;;;;;;;29.55;14.85;;;;;;;7.62;100.00;100632.13;5012998;28;20041;-83
2021/12/29 06:45:21;;;;;;;23.92;13.38;;;;;;;7.47;100.00;100611.47;5014738;28;20042;-86
2021/12/29 06:47:46;;;;;;;23.20;13.45;;;;;;;7.44;100.00;100608.22;5014528;28;20089;-87
2021/12/29 06:50:12;;;;;;;27.15;13.98;;;;;;;7.51;100.00;100621.59;5013551;28;20032;-85
2021/12/29 06:52:37;;;;;;;22.27;13.15;;;;;;;7.50;100.00;100613.06;5014894;28;20033;-86
2021/12/29 06:55:04;;;;;;;23.95;14.75;;;;;;;7.33;100.00;100595.13;5014664;28;20026;-84
2021/12/29 06:57:29;;;;;;;24.55;13.27;;;;;;;7.42;100.00;100625.47;5014751;28;20033;-85
2021/12/29 06:59:55;;;;;;;26.65;13.85;;;;;;;7.57;100.00;100647.78;5012067;28;20048;-84
2021/12/29 07:02:20;;;;;;;24.45;13.63;;;;;;;7.57;100.00;100644.38;5014289;28;20382;-82
2021/12/29 07:04:46;;;;;;;23.35;13.10;;;;;;;7.58;100.00;100643.47;5014322;28;20038;-76
2021/12/29 07:07:11;;;;;;;24.80;12.82;;;;;;;7.53;100.00;100630.88;5014824;28;20026;-81
2021/12/29 07:09:37;;;;;;;21.90;12.57;;;;;;;7.58;100.00;100646.06;5014364;28;20049;-79
2021/12/29 07:12:02;;;;;;;24.48;13.45;;;;;;;7.32;100.00;100617.41;5014443;28;20041;-86
2021/12/29 07:14:28;;;;;;;22.95;13.40;;;;;;;7.42;100.00;100648.59;5012811;28;20382;-76
2021/12/29 07:16:53;;;;;;;22.50;13.43;;;;;;;7.55;100.00;100667.56;5015118;28;20101;-81
2021/12/29 07:19:20;;;;;;;19.67;11.70;;;;;;;7.39;100.00;100656.47;4996622;28;20393;-85
2021/12/29 07:21:47;;;;;;;19.27;12.00;;;;;;;7.34;100.00;100656.69;5014080;28;20060;-85
2021/12/29 07:24:13;;;;;;;20.63;12.95;;;;;;;7.49;100.00;100683.34;5014149;28;20052;-83
2021/12/29 07:26:38;;;;;;;19.52;12.80;;;;;;;7.42;100.00;100676.84;5013759;28;20449;-80
2021/12/29 07:29:05;;;;;;;21.88;13.73;;;;;;;7.43;100.00;100675.94;5013354;28;20052;-82
2021/12/29 07:31:31;;;;;;;21.05;12.23;;;;;;;7.28;100.00;100664.75;5014015;28;20465;-80
2021/12/29 07:33:57;;;;;;;22.05;13.15;;;;;;;7.44;100.00;100701.53;5013912;28;20030;-81
2021/12/29 07:36:23;;;;;;;18.45;12.80;;;;;;;7.44;100.00;100705.84;5013765;28;20029;-83
2021/12/29 07:38:49;;;;;;;22.67;12.63;;;;;;;7.43;100.00;100701.63;4996114;28;20041;-77
2021/12/29 07:41:14;;;;;;;18.35;12.85;;;;;;;7.26;100.00;100681.94;5013974;28;20113;-81
2021/12/29 07:43:40;;;;;;;22.90;13.23;;;;;;;7.43;100.00;100707.59;5013676;28;20057;-84
2021/12/29 07:46:06;;;;;;;25.63;13.02;;;;;;;7.32;100.00;100681.63;5013714;28;20038;-80
2021/12/29 07:48:34;;;;;;;21.17;11.52;;;;;;;7.23;100.00;100676.97;5013408;28;20113;-84
2021/12/29 07:51:03;;;;;;;21.00;11.43;;;;;;;7.09;100.00;100653.75;5013518;28;20474;-84
2021/12/29 07:53:29;;;;;;;23.33;11.88;;;;;;;7.40;100.00;100697.50;5013557;28;20026;-84
2021/12/29 07:55:57;;;;;;;18.80;11.32;;;;;;;7.37;100.00;100695.06;5013850;28;20033;-81
2021/12/29 07:58:28;;;;;;;18.98;11.70;;;;;;;7.39;100.00;100703.53;5012950;28;20446;-79
2021/12/29 08:03:40;;;;;;;23.48;11.32;;;;;;;7.40;100.00;100694.09;4971616;28;20406;-83
2021/12/29 08:06:12;;;;;;;19.45;10.93;;;;;;;6.60;100.00;100572.38;4972020;28;20047;-83
2021/12/29 08:08:37;;;;;;;23.15;10.65;;;;;;;6.59;100.00;100565.59;4972245;28;20043;-83
2021/12/29 08:11:03;;;;;;;17.65;10.13;;;;;;;7.42;100.00;100707.69;4972152;28;20158;-84
2021/12/29 08:13:28;;;;;;;18.58;10.30;;;;;;;6.94;100.00;100628.84;4972333;28;20102;-84
2021/12/29 08:16:06;;;;;;;16.23;9.05;;;;;;;6.69;100.00;100588.22;4972110;28;20612;-83
2021/12/29 08:18:31;;;;;;;16.02;8.90;;;;;;;6.73;100.00;100600.81;4971886;28;20074;-82
2021/12/29 08:20:57;;;;;;;16.02;9.40;;;;;;;6.98;100.00;100641.47;4971961;28;20038;-83
2021/12/29 08:23:22;;;;;;;14.55;9.10;;;;;;;6.40;100.00;100530.69;4972002;28;20042;-82
2021/12/29 08:25:48;;;;;;;15.68;9.75;;;;;;;7.30;100.00;100670.63;4972065;28;20027;-84
2021/12/29 08:28:13;;;;;;;18.10;10.30;;;;;;;7.37;100.00;100683.94;4971956;28;20035;-85
2021/12/29 08:31:00;;;;;;;20.17;10.20;;;;;;;7.48;100.00;100702.22;4971949;28;20038;-82
2021/12/29 08:33:26;;;;;;;17.30;10.00;;;;;;;6.97;100.00;100618.41;4971883;28;20150;-83
2021/12/29 08:35:52;;;;;;;20.25;9.80;;;;;;;7.54;100.00;100716.47;4971794;28;20434;-82
2021/12/29 08:38:17;;;;;;;15.48;10.27;;;;;;;7.46;100.00;100693.75;4971824;28;20034;-81
2021/12/29 08:40:52;;;;;;;21.10;10.07;;;;;;;7.56;100.00;100710.34;4991795;28;20044;-84
2021/12/29 08:43:18;;;;;;;18.25;9.70;;;;;;;6.83;100.00;100591.72;5012929;28;20022;-85
2021/12/29 08:45:46;;;;;;;18.33;9.98;;;;;;;6.71;100.00;100571.00;5012093;28;20042;-84
2021/12/29 08:48:12;;;;;;;16.48;11.30;;;;;;;7.05;100.00;100621.41;5012418;28;20474;-83
2021/12/29 08:50:38;;;;;;;19.48;10.32;;;;;;;7.14;100.00;100642.31;5011808;28;20057;-78
2021/12/29 08:53:05;;;;;;;17.85;10.07;;;;;;;6.72;100.00;100575.22;5011828;28;20064;-84
2021/12/29 08:55:32;;;;;;;18.02;10.43;;;;;;;7.54;100.00;100701.91;5011773;28;20378;-83
2021/12/29 08:57:58;;;;;;;20.63;10.77;;;;;;;7.23;100.00;100640.19;5011998;28;20381;-84
2021/12/29 09:00:24;;;;;;;32.70;11.77;;;;;;;7.05;100.00;100606.84;5011928;28;20026;-82
2021/12/29 09:02:49;;;;;;;18.35;11.63;;;;;;;6.75;100.00;100555.34;5010089;28;20123;-81
2021/12/29 09:05:16;;;;;;;17.77;10.40;;;;;;;6.99;100.00;100602.03;5011806;28;20075;-83
2021/12/29 09:07:57;;;;;;;21.73;11.23;;;;;;;6.95;100.00;100582.56;5011291;28;20029;-82
2021/12/29 09:10:44;;;;;;;16.92;11.02;;;;;;;6.95;100.00;100571.47;5011810;28;20034;-82
2021/12/29 09:13:10;;;;;;;19.05;11.57;;;;;;;7.13;100.00;100599.56;5011895;28;20033;-81
2021/12/29 09:15:39;;;;;;;20.08;11.10;;;;;;;7.10;100.00;100586.91;5011473;28;20026;-82
2021/12/29 09:18:04;;;;;;;16.45;10.55;;;;;;;7.79;100.00;100696.31;5011592;28;20022;-83
2021/12/29 09:20:32;;;;;;;18.77;10.82;;;;;;;6.84;100.00;100538.66;5011523;28;20040;-86
2021/12/29 09:23:03;;;;;;;16.55;11.38;;;;;;;6.99;100.00;100550.69;5013756;28;20033;-85
2021/12/29 09:25:30;;;;;;;20.38;11.43;;;;;;;7.90;100.00;100688.84;5014897;28;20030;-85
2021/12/29 09:28:06;;;;;;;17.27;11.05;;;;;;;7.45;100.00;100592.72;5014903;28;20018;-85
2021/12/29 09:30:42;;;;;;;23.63;11.75;;;;;;;7.27;100.00;100544.91;5014964;28;20032;-84
2021/12/29 09:33:07;;;;;;;16.88;11.35;;;;;;;8.15;100.00;100698.59;5014909;28;20022;-85
2021/12/29 09:35:33;;;;;;;18.90;11.50;;;;;;;8.03;99.39;100686.41;5014611;28;20030;-79
2021/12/29 09:37:59;;;;;;;17.70;12.23;;;;;;;7.55;99.83;100611.03;5014809;28;20029;-77
2021/12/29 09:40:25;;;;;;;20.33;12.27;;;;;;;7.95;99.59;100678.28;5001069;28;20076;-85
2021/12/29 09:42:52;;;;;;;21.30;13.00;;;;;;;7.57;99.35;100616.97;4978092;28;20066;-86
2021/12/29 09:45:18;;;;;;;17.95;11.63;;;;;;;8.06;98.86;100704.25;4997259;23;1121427;-82
2021/12/29 09:47:45;;;;;;;17.00;11.32;;;;;;;7.42;98.85;100604.91;5035987;28;20037;-83
2021/12/29 09:50:17;;;;;;;16.40;11.95;;;;;;;7.38;98.71;100583.72;5011171;28;20049;-83
2021/12/29 09:52:42;;;;;;;;;;;;;;;8.15;99.58;100702.91;4997488;28;20081;-85
2021/12/29 09:55:36;;;;;;;17.60;11.43;;;;;;;7.97;98.97;100666.22;5015778;28;19959;-85
2021/12/29 09:58:03;;;;;;;18.48;12.65;;;;;;;8.13;98.98;100681.59;5014538;28;20133;-85
2021/12/29 10:01:20;;;;;;;17.85;11.55;;;;;;;8.30;98.64;100700.34;5015709;28;20393;-83
2021/12/29 10:04:46;;;;;;;18.67;10.52;;;;;;;7.13;98.78;100484.03;5015338;28;20022;-84
2021/12/29 10:06:52;;;;;;;19.55;11.15;;;;;;;8.48;97.41;100690.81;5012343;28;20045;-88
2021/12/29 10:09:22;;;;;;;18.45;10.73;;;;;;;8.53;97.03;100698.25;5015565;28;20026;-87
2021/12/29 10:11:48;;;;;;;20.05;11.05;;;;;;;8.48;96.53;100679.69;5015467;28;20085;-88
2021/12/29 10:14:18;;;;;;;18.83;10.55;;;;;;;8.19;96.59;100625.53;5014744;28;20032;-84
2021/12/29 10:16:59;;;;;;;;;;;;;;;;;;;;;
2021/12/29 10:23:22;;;;;;;15.43;10.35;;;;;;;8.78;96.78;100700.28;5015375;28;19916;-83
2021/12/29 10:25:48;;;;;;;15.23;9.50;;;;;;;8.11;95.82;100594.25;5015351;28;20060;-85
2021/12/29 10:28:29;;;;;;;16.13;10.27;;;;;;;8.23;96.04;100608.97;5015606;28;20076;-83
2021/12/29 10:31:22;;;;;;;19.77;11.87;;;;;;;7.98;96.25;100557.28;5015347;28;20026;-86
2021/12/29 10:34:29;;;;;;;17.55;10.52;;;;;;;7.30;95.99;100436.06;5014031;28;20033;-83
2021/12/29 10:37:11;;;;;;;15.30;9.40;;;;;;;8.59;95.44;100636.16;5014814;28;20393;-86
2021/12/29 10:39:46;;;;;;;16.20;8.55;;;;;;;7.72;95.25;100515.88;5014940;28;20102;-85
2021/12/29 10:42:17;;;;;;;18.13;10.27;;;;;;;8.17;95.78;100588.78;5015336;28;20726;-84
2021/12/29 10:44:57;;;;;;;15.45;8.98;;;;;;;7.75;95.64;100510.56;5012745;28;20069;-85
2021/12/29 10:47:31;;;;;;;15.40;9.57;;;;;;;8.38;95.96;100627.09;5014678;28;20033;-85
2021/12/29 10:50:09;;;;;;;15.23;7.55;;;;;;;8.73;95.83;100674.78;5015018;28;20101;-84
2021/12/29 10:52:39;;;;;;;18.80;8.35;;;;;;;8.74;95.59;100658.41;5014679;28;20398;-83
2021/12/29 10:55:08;;;;;;;17.85;7.95;;;;;;;8.77;96.15;100658.25;5014739;28;20022;-85
2021/12/29 10:57:35;;;;;;;13.13;7.55;;;;;;;8.14;95.00;100560.63;5014591;28;20029;-83
2021/12/29 11:00:03;;;;;;;11.93;7.13;;;;;;;7.98;95.24;100547.84;5014325;28;20029;-83
2021/12/29 11:02:31;;;;;;;14.10;7.40;;;;;;;8.71;95.46;100681.75;5014483;28;20492;-81
2021/12/29 11:04:58;;;;;;;14.60;7.28;;;;;;;7.73;95.57;100525.25;5014488;28;20398;-83
2021/12/29 11:07:30;;;;;;;16.80;7.47;;;;;;;7.64;95.94;100527.50;4996910;28;20034;-82
2021/12/29 11:10:06;;;;;;;15.55;7.75;;;;;;;8.67;95.78;100685.44;5014396;28;20156;-84
2021/12/29 11:12:48;;;;;;;13.40;7.40;;;;;;;7.88;95.58;100567.25;5012924;28;20057;-84
2021/12/29 11:15:29;;;;;;;17.38;8.40;;;;;;;7.81;95.82;100544.56;5014408;28;20022;-83
2021/12/29 11:19:03;;;;;;;14.57;7.28;;;;;;;7.58;95.56;100522.72;5014382;28;20073;-82
2021/12/29 11:21:04;;;;;;;11.30;6.80;;;;;;;8.63;95.83;100689.91;5006606;28;20549;-84
2021/12/29 11:23:29;;;;;;;15.43;7.25;;;;;;;8.02;96.00;100585.31;5014356;28;20040;-84
2021/12/29 11:25:59;;;;;;;12.85;6.60;;;;;;;7.72;95.38;100523.59;5014203;28;20101;-86
2021/12/29 11:28:28;;;;;;;13.68;6.95;;;;;;;7.98;95.62;100581.25;5014045;28;20022;-83
2021/12/29 11:31:03;;;;;;;17.80;7.45;;;;;;;7.94;96.21;100555.78;5013516;28;20112;-82
2021/12/29 11:34:26;;;;;;;12.70;6.53;;;;;;;7.42;96.04;100471.34;5014266;28;20030;-81
2021/12/29 11:37:00;;;;;;;13.32;6.20;;;;;;;8.60;96.34;100653.25;5013728;28;20026;-84